sensor_id;sensor_type;location;lat;lon;timestamp;temperature;humidity
15997;DHT22;8103;51.340;12.326;2023-06-14T00:02:18;15.30;72.80
15997;DHT22;8103;51.340;12.326;2023-06-14T00:04:46;15.30;73.10
15997;DHT22;8103;51.340;12.326;2023-06-14T00:07:14;15.30;73.70
15997;DHT22;8103;51.340;12.326;2023-06-14T00:09:43;15.20;74.00
15997;DHT22;8103;51.340;12.326;2023-06-14T00:12:10;15.20;74.20
15997;DHT22;8103;51.340;12.326;2023-06-14T00:14:37;15.10;74.60
15997;DHT22;8103;51.340;12.326;2023-06-14T00:17:04;15.10;74.90
15997;DHT22;8103;51.340;12.326;2023-06-14T00:19:31;15.10;75.30
15997;DHT22;8103;51.340;12.326;2023-06-14T00:21:59;15.00;75.50
15997;DHT22;8103;51.340;12.326;2023-06-14T00:24:28;15.00;75.80
15997;DHT22;8103;51.340;12.326;2023-06-14T00:26:56;14.90;76.20
15997;DHT22;8103;51.340;12.326;2023-06-14T00:29:23;14.90;76.70
15997;DHT22;8103;51.340;12.326;2023-06-14T00:31:50;14.80;77.00
15997;DHT22;8103;51.340;12.326;2023-06-14T00:34:17;14.80;77.50
15997;DHT22;8103;51.340;12.326;2023-06-14T00:36:44;14.80;77.80
15997;DHT22;8103;51.340;12.326;2023-06-14T00:39:11;14.70;78.30
15997;DHT22;8103;51.340;12.326;2023-06-14T00:41:39;14.70;78.40
15997;DHT22;8103;51.340;12.326;2023-06-14T00:44:06;14.70;78.60
15997;DHT22;8103;51.340;12.326;2023-06-14T00:46:34;14.60;79.10
15997;DHT22;8103;51.340;12.326;2023-06-14T00:49:01;14.60;79.40
15997;DHT22;8103;51.340;12.326;2023-06-14T00:55:35;14.60;82.00
15997;DHT22;8103;51.340;12.326;2023-06-14T00:58:03;14.50;82.30
15997;DHT22;8103;51.340;12.326;2023-06-14T01:00:30;14.50;81.20
15997;DHT22;8103;51.340;12.326;2023-06-14T01:02:56;14.50;85.40
15997;DHT22;8103;51.340;12.326;2023-06-14T01:05:24;14.50;86.70
15997;DHT22;8103;51.340;12.326;2023-06-14T01:08:24;14.40;83.80
15997;DHT22;8103;51.340;12.326;2023-06-14T01:11:07;14.30;83.10
15997;DHT22;8103;51.340;12.326;2023-06-14T01:13:46;14.30;86.00
15997;DHT22;8103;51.340;12.326;2023-06-14T01:16:14;14.30;85.00
15997;DHT22;8103;51.340;12.326;2023-06-14T01:18:43;14.30;86.50
15997;DHT22;8103;51.340;12.326;2023-06-14T01:21:25;14.30;86.90
15997;DHT22;8103;51.340;12.326;2023-06-14T01:23:53;14.30;87.30
15997;DHT22;8103;51.340;12.326;2023-06-14T01:26:22;14.30;85.90
15997;DHT22;8103;51.340;12.326;2023-06-14T01:28:50;14.20;89.70
15997;DHT22;8103;51.340;12.326;2023-06-14T01:31:20;14.30;90.70
15997;DHT22;8103;51.340;12.326;2023-06-14T01:33:49;14.20;90.70
15997;DHT22;8103;51.340;12.326;2023-06-14T01:38:47;14.10;85.00
15997;DHT22;8103;51.340;12.326;2023-06-14T01:41:17;14.10;86.00
15997;DHT22;8103;51.340;12.326;2023-06-14T01:43:47;14.10;86.40
15997;DHT22;8103;51.340;12.326;2023-06-14T01:46:16;14.00;86.50
15997;DHT22;8103;51.340;12.326;2023-06-14T01:48:43;14.00;86.90
15997;DHT22;8103;51.340;12.326;2023-06-14T01:51:10;14.00;87.20
15997;DHT22;8103;51.340;12.326;2023-06-14T01:53:37;13.90;87.50
15997;DHT22;8103;51.340;12.326;2023-06-14T01:56:05;13.90;87.80
15997;DHT22;8103;51.340;12.326;2023-06-14T01:58:33;13.90;88.20
15997;DHT22;8103;51.340;12.326;2023-06-14T02:01:00;13.80;88.50
15997;DHT22;8103;51.340;12.326;2023-06-14T02:03:27;13.80;88.90
15997;DHT22;8103;51.340;12.326;2023-06-14T02:05:54;13.70;89.30
15997;DHT22;8103;51.340;12.326;2023-06-14T02:08:22;13.70;89.70
15997;DHT22;8103;51.340;12.326;2023-06-14T02:10:50;13.70;90.00
15997;DHT22;8103;51.340;12.326;2023-06-14T02:13:17;13.70;90.10
15997;DHT22;8103;51.340;12.326;2023-06-14T02:15:44;13.70;90.20
15997;DHT22;8103;51.340;12.326;2023-06-14T02:18:11;13.70;90.30
15997;DHT22;8103;51.340;12.326;2023-06-14T02:20:39;13.60;90.40
15997;DHT22;8103;51.340;12.326;2023-06-14T02:23:05;13.60;90.40
15997;DHT22;8103;51.340;12.326;2023-06-14T02:25:34;13.60;90.70
15997;DHT22;8103;51.340;12.326;2023-06-14T02:28:01;13.50;90.80
15997;DHT22;8103;51.340;12.326;2023-06-14T02:30:29;13.50;91.00
15997;DHT22;8103;51.340;12.326;2023-06-14T02:32:56;13.50;91.20
15997;DHT22;8103;51.340;12.326;2023-06-14T02:35:23;13.50;91.20
15997;DHT22;8103;51.340;12.326;2023-06-14T02:37:53;13.50;91.50
15997;DHT22;8103;51.340;12.326;2023-06-14T02:40:20;13.50;91.50
15997;DHT22;8103;51.340;12.326;2023-06-14T02:42:47;13.50;91.60
15997;DHT22;8103;51.340;12.326;2023-06-14T02:45:14;13.50;91.70
15997;DHT22;8103;51.340;12.326;2023-06-14T02:47:41;13.40;91.70
15997;DHT22;8103;51.340;12.326;2023-06-14T02:50:10;13.40;91.90
15997;DHT22;8103;51.340;12.326;2023-06-14T02:52:37;13.40;92.00
15997;DHT22;8103;51.340;12.326;2023-06-14T02:55:05;13.40;92.30
15997;DHT22;8103;51.340;12.326;2023-06-14T02:57:32;13.40;92.40
15997;DHT22;8103;51.340;12.326;2023-06-14T02:59:59;13.30;92.50
15997;DHT22;8103;51.340;12.326;2023-06-14T03:02:27;13.40;93.00
15997;DHT22;8103;51.340;12.326;2023-06-14T03:04:54;13.30;92.70
15997;DHT22;8103;51.340;12.326;2023-06-14T03:07:22;13.30;92.80
15997;DHT22;8103;51.340;12.326;2023-06-14T03:09:49;13.30;92.90
15997;DHT22;8103;51.340;12.326;2023-06-14T03:12:17;13.30;93.00
15997;DHT22;8103;51.340;12.326;2023-06-14T03:14:45;13.30;93.10
15997;DHT22;8103;51.340;12.326;2023-06-14T03:17:13;13.30;93.30
15997;DHT22;8103;51.340;12.326;2023-06-14T03:19:40;13.30;93.40
15997;DHT22;8103;51.340;12.326;2023-06-14T03:22:08;13.20;93.40
15997;DHT22;8103;51.340;12.326;2023-06-14T03:24:35;13.20;93.50
15997;DHT22;8103;51.340;12.326;2023-06-14T03:27:04;13.20;93.60
15997;DHT22;8103;51.340;12.326;2023-06-14T03:29:31;13.20;93.60
15997;DHT22;8103;51.340;12.326;2023-06-14T03:32:01;13.20;93.80
15997;DHT22;8103;51.340;12.326;2023-06-14T03:34:29;13.20;93.80
15997;DHT22;8103;51.340;12.326;2023-06-14T03:36:56;13.20;94.00
15997;DHT22;8103;51.340;12.326;2023-06-14T03:39:23;13.20;94.10
15997;DHT22;8103;51.340;12.326;2023-06-14T03:41:50;13.20;94.10
15997;DHT22;8103;51.340;12.326;2023-06-14T03:44:18;13.20;94.30
15997;DHT22;8103;51.340;12.326;2023-06-14T03:46:46;13.20;94.30
15997;DHT22;8103;51.340;12.326;2023-06-14T03:49:13;13.20;94.30
15997;DHT22;8103;51.340;12.326;2023-06-14T03:51:43;13.20;94.40
15997;DHT22;8103;51.340;12.326;2023-06-14T03:54:10;13.20;94.40
15997;DHT22;8103;51.340;12.326;2023-06-14T03:56:57;13.20;94.80
15997;DHT22;8103;51.340;12.326;2023-06-14T03:59:27;13.20;94.60
15997;DHT22;8103;51.340;12.326;2023-06-14T04:01:54;13.20;94.60
15997;DHT22;8103;51.340;12.326;2023-06-14T04:04:21;13.20;94.70
15997;DHT22;8103;51.340;12.326;2023-06-14T04:06:56;13.20;94.70
15997;DHT22;8103;51.340;12.326;2023-06-14T04:09:26;13.30;94.90
15997;DHT22;8103;51.340;12.326;2023-06-14T04:11:53;13.30;94.80
15997;DHT22;8103;51.340;12.326;2023-06-14T04:14:21;13.40;94.80
15997;DHT22;8103;51.340;12.326;2023-06-14T04:16:49;13.40;94.60
15997;DHT22;8103;51.340;12.326;2023-06-14T04:19:22;13.40;94.60
15997;DHT22;8103;51.340;12.326;2023-06-14T04:22:02;13.40;94.60
15997;DHT22;8103;51.340;12.326;2023-06-14T04:24:38;13.50;94.70
15997;DHT22;8103;51.340;12.326;2023-06-14T04:27:05;13.50;94.70
15997;DHT22;8103;51.340;12.326;2023-06-14T04:29:33;13.50;94.70
15997;DHT22;8103;51.340;12.326;2023-06-14T04:32:00;13.60;94.70
15997;DHT22;8103;51.340;12.326;2023-06-14T04:34:28;13.70;94.70
15997;DHT22;8103;51.340;12.326;2023-06-14T04:37:10;13.70;94.50
15997;DHT22;8103;51.340;12.326;2023-06-14T04:39:38;13.80;94.40
15997;DHT22;8103;51.340;12.326;2023-06-14T04:42:05;13.80;94.30
15997;DHT22;8103;51.340;12.326;2023-06-14T04:44:33;13.90;94.20
15997;DHT22;8103;51.340;12.326;2023-06-14T04:47:01;14.00;94.10
15997;DHT22;8103;51.340;12.326;2023-06-14T04:49:28;14.10;94.00
15997;DHT22;8103;51.340;12.326;2023-06-14T04:51:59;14.10;93.90
15997;DHT22;8103;51.340;12.326;2023-06-14T04:54:28;14.20;93.70
15997;DHT22;8103;51.340;12.326;2023-06-14T04:56:58;14.30;93.60
15997;DHT22;8103;51.340;12.326;2023-06-14T04:59:25;14.30;93.50
15997;DHT22;8103;51.340;12.326;2023-06-14T05:01:52;14.40;93.40
15997;DHT22;8103;51.340;12.326;2023-06-14T05:04:20;14.50;93.20
15997;DHT22;8103;51.340;12.326;2023-06-14T05:06:48;14.60;93.10
15997;DHT22;8103;51.340;12.326;2023-06-14T05:13:22;14.70;92.80
15997;DHT22;8103;51.340;12.326;2023-06-14T05:15:49;14.80;92.60
15997;DHT22;8103;51.340;12.326;2023-06-14T05:18:16;14.90;92.40
15997;DHT22;8103;51.340;12.326;2023-06-14T05:20:43;14.90;92.30
15997;DHT22;8103;51.340;12.326;2023-06-14T05:23:11;15.00;92.20
15997;DHT22;8103;51.340;12.326;2023-06-14T05:25:45;15.10;92.00
15997;DHT22;8103;51.340;12.326;2023-06-14T05:28:13;15.10;91.90
15997;DHT22;8103;51.340;12.326;2023-06-14T05:30:40;15.20;91.90
15997;DHT22;8103;51.340;12.326;2023-06-14T05:33:07;15.30;91.80
15997;DHT22;8103;51.340;12.326;2023-06-14T05:35:35;15.40;91.60
15997;DHT22;8103;51.340;12.326;2023-06-14T05:38:02;15.50;91.30
15997;DHT22;8103;51.340;12.326;2023-06-14T05:40:29;15.60;91.00
15997;DHT22;8103;51.340;12.326;2023-06-14T05:42:56;15.60;90.80
15997;DHT22;8103;51.340;12.326;2023-06-14T05:45:23;15.70;90.80
15997;DHT22;8103;51.340;12.326;2023-06-14T05:47:50;15.70;90.90
15997;DHT22;8103;51.340;12.326;2023-06-14T05:50:18;15.70;90.30
15997;DHT22;8103;51.340;12.326;2023-06-14T05:52:45;15.80;90.30
15997;DHT22;8103;51.340;12.326;2023-06-14T05:55:12;15.80;90.30
15997;DHT22;8103;51.340;12.326;2023-06-14T05:57:40;15.90;90.20
15997;DHT22;8103;51.340;12.326;2023-06-14T06:00:08;15.90;90.00
15997;DHT22;8103;51.340;12.326;2023-06-14T06:02:42;16.00;89.80
15997;DHT22;8103;51.340;12.326;2023-06-14T06:05:11;16.10;89.40
15997;DHT22;8103;51.340;12.326;2023-06-14T06:07:39;16.20;89.20
15997;DHT22;8103;51.340;12.326;2023-06-14T06:10:08;16.30;89.00
15997;DHT22;8103;51.340;12.326;2023-06-14T06:12:35;16.40;88.50
15997;DHT22;8103;51.340;12.326;2023-06-14T06:19:08;16.50;87.30
15997;DHT22;8103;51.340;12.326;2023-06-14T06:21:35;16.60;86.40
15997;DHT22;8103;51.340;12.326;2023-06-14T06:24:02;16.70;86.00
15997;DHT22;8103;51.340;12.326;2023-06-14T06:26:32;16.80;85.90
15997;DHT22;8103;51.340;12.326;2023-06-14T06:28:59;16.80;85.50
15997;DHT22;8103;51.340;12.326;2023-06-14T06:31:26;16.90;84.90
15997;DHT22;8103;51.340;12.326;2023-06-14T06:33:54;17.00;84.60
15997;DHT22;8103;51.340;12.326;2023-06-14T06:36:22;17.00;84.20
15997;DHT22;8103;51.340;12.326;2023-06-14T06:38:49;17.10;84.10
15997;DHT22;8103;51.340;12.326;2023-06-14T06:41:16;17.20;83.70
15997;DHT22;8103;51.340;12.326;2023-06-14T06:43:43;17.20;83.30
15997;DHT22;8103;51.340;12.326;2023-06-14T06:46:10;17.40;83.20
15997;DHT22;8103;51.340;12.326;2023-06-14T06:48:37;17.50;82.70
15997;DHT22;8103;51.340;12.326;2023-06-14T06:51:04;17.60;82.30
15997;DHT22;8103;51.340;12.326;2023-06-14T06:53:32;17.80;81.80
15997;DHT22;8103;51.340;12.326;2023-06-14T06:56:07;17.90;80.90
15997;DHT22;8103;51.340;12.326;2023-06-14T06:58:34;18.10;80.30
15997;DHT22;8103;51.340;12.326;2023-06-14T07:01:01;18.10;78.00
15997;DHT22;8103;51.340;12.326;2023-06-14T07:03:28;18.20;77.80
15997;DHT22;8103;51.340;12.326;2023-06-14T07:05:55;18.30;77.50
15997;DHT22;8103;51.340;12.326;2023-06-14T07:08:22;18.50;76.60
15997;DHT22;8103;51.340;12.326;2023-06-14T07:10:49;18.60;75.30
15997;DHT22;8103;51.340;12.326;2023-06-14T07:13:16;18.70;74.80
15997;DHT22;8103;51.340;12.326;2023-06-14T07:15:43;18.80;74.20
15997;DHT22;8103;51.340;12.326;2023-06-14T07:18:10;18.90;73.40
15997;DHT22;8103;51.340;12.326;2023-06-14T07:20:38;19.00;72.30
15997;DHT22;8103;51.340;12.326;2023-06-14T07:23:05;19.10;71.70
15997;DHT22;8103;51.340;12.326;2023-06-14T07:25:32;19.20;72.50
15997;DHT22;8103;51.340;12.326;2023-06-14T07:32:06;19.40;71.00
15997;DHT22;8103;51.340;12.326;2023-06-14T07:34:33;19.60;70.50
15997;DHT22;8103;51.340;12.326;2023-06-14T07:37:00;19.80;70.30
15997;DHT22;8103;51.340;12.326;2023-06-14T07:39:27;19.90;69.70
15997;DHT22;8103;51.340;12.326;2023-06-14T07:41:54;20.00;68.20
15997;DHT22;8103;51.340;12.326;2023-06-14T07:44:21;20.20;66.90
15997;DHT22;8103;51.340;12.326;2023-06-14T07:46:48;20.30;66.20
15997;DHT22;8103;51.340;12.326;2023-06-14T07:49:16;20.50;64.60
15997;DHT22;8103;51.340;12.326;2023-06-14T07:51:43;20.60;64.70
15997;DHT22;8103;51.340;12.326;2023-06-14T07:58:12;20.90;62.80
15997;DHT22;8103;51.340;12.326;2023-06-14T08:00:39;21.10;62.10
15997;DHT22;8103;51.340;12.326;2023-06-14T08:03:06;21.20;61.10
15997;DHT22;8103;51.340;12.326;2023-06-14T08:05:32;21.30;60.10
15997;DHT22;8103;51.340;12.326;2023-06-14T08:07:59;21.50;59.70
15997;DHT22;8103;51.340;12.326;2023-06-14T08:10:27;21.60;59.20
15997;DHT22;8103;51.340;12.326;2023-06-14T08:12:54;21.80;58.50
15997;DHT22;8103;51.340;12.326;2023-06-14T08:15:21;21.80;58.50
15997;DHT22;8103;51.340;12.326;2023-06-14T08:17:49;21.90;58.20
15997;DHT22;8103;51.340;12.326;2023-06-14T08:20:17;21.90;58.10
15997;DHT22;8103;51.340;12.326;2023-06-14T08:22:44;22.00;57.70
15997;DHT22;8103;51.340;12.326;2023-06-14T08:25:12;22.10;57.50
15997;DHT22;8103;51.340;12.326;2023-06-14T08:27:41;22.30;56.60
15997;DHT22;8103;51.340;12.326;2023-06-14T08:30:08;22.50;55.50
15997;DHT22;8103;51.340;12.326;2023-06-14T08:32:36;22.70;54.90
15997;DHT22;8103;51.340;12.326;2023-06-14T08:35:04;22.90;54.20
15997;DHT22;8103;51.340;12.326;2023-06-14T08:37:32;23.00;53.60
15997;DHT22;8103;51.340;12.326;2023-06-14T08:40:00;23.10;53.10
15997;DHT22;8103;51.340;12.326;2023-06-14T08:42:28;23.20;53.40
15997;DHT22;8103;51.340;12.326;2023-06-14T08:44:58;23.30;53.30
15997;DHT22;8103;51.340;12.326;2023-06-14T08:47:26;23.50;52.80
15997;DHT22;8103;51.340;12.326;2023-06-14T08:49:57;23.70;51.70
15997;DHT22;8103;51.340;12.326;2023-06-14T08:52:27;23.90;51.20
15997;DHT22;8103;51.340;12.326;2023-06-14T08:55:00;24.20;50.70
15997;DHT22;8103;51.340;12.326;2023-06-14T08:57:29;24.60;49.40
15997;DHT22;8103;51.340;12.326;2023-06-14T08:59:57;25.00;48.20
15997;DHT22;8103;51.340;12.326;2023-06-14T09:02:24;25.20;46.80
15997;DHT22;8103;51.340;12.326;2023-06-14T09:04:52;25.50;46.30
15997;DHT22;8103;51.340;12.326;2023-06-14T09:07:18;26.00;44.80
15997;DHT22;8103;51.340;12.326;2023-06-14T09:09:45;26.30;43.70
15997;DHT22;8103;51.340;12.326;2023-06-14T09:12:31;26.60;43.00
15997;DHT22;8103;51.340;12.326;2023-06-14T09:14:58;26.90;41.90
15997;DHT22;8103;51.340;12.326;2023-06-14T09:17:25;27.00;40.90
15997;DHT22;8103;51.340;12.326;2023-06-14T09:19:55;27.20;40.70
15997;DHT22;8103;51.340;12.326;2023-06-14T09:22:23;27.40;41.00
15997;DHT22;8103;51.340;12.326;2023-06-14T09:24:50;27.90;41.00
15997;DHT22;8103;51.340;12.326;2023-06-14T09:27:20;28.10;40.10
15997;DHT22;8103;51.340;12.326;2023-06-14T09:29:47;27.90;39.50
15997;DHT22;8103;51.340;12.326;2023-06-14T09:32:14;27.80;40.20
15997;DHT22;8103;51.340;12.326;2023-06-14T09:34:41;27.70;40.10
15997;DHT22;8103;51.340;12.326;2023-06-14T09:37:08;27.80;40.40
15997;DHT22;8103;51.340;12.326;2023-06-14T09:39:35;28.30;39.70
15997;DHT22;8103;51.340;12.326;2023-06-14T09:42:19;28.60;38.50
15997;DHT22;8103;51.340;12.326;2023-06-14T09:44:48;28.60;38.40
15997;DHT22;8103;51.340;12.326;2023-06-14T09:47:16;28.90;38.40
15997;DHT22;8103;51.340;12.326;2023-06-14T09:49:44;29.70;36.90
15997;DHT22;8103;51.340;12.326;2023-06-14T09:52:17;30.30;36.00
15997;DHT22;8103;51.340;12.326;2023-06-14T09:54:47;30.70;35.60
15997;DHT22;8103;51.340;12.326;2023-06-14T09:57:23;31.00;34.70
15997;DHT22;8103;51.340;12.326;2023-06-14T09:59:59;31.60;34.20
15997;DHT22;8103;51.340;12.326;2023-06-14T10:02:37;32.20;34.70
15997;DHT22;8103;51.340;12.326;2023-06-14T10:05:07;32.00;33.70
15997;DHT22;8103;51.340;12.326;2023-06-14T10:07:50;31.80;34.20
15997;DHT22;8103;51.340;12.326;2023-06-14T10:10:25;31.70;34.10
15997;DHT22;8103;51.340;12.326;2023-06-14T10:12:52;31.70;33.30
15997;DHT22;8103;51.340;12.326;2023-06-14T10:15:32;32.00;32.50
15997;DHT22;8103;51.340;12.326;2023-06-14T10:18:28;32.70;31.50
15997;DHT22;8103;51.340;12.326;2023-06-14T10:21:36;32.30;30.80
15997;DHT22;8103;51.340;12.326;2023-06-14T10:24:20;31.90;30.90
15997;DHT22;8103;51.340;12.326;2023-06-14T10:26:57;31.60;31.60
15997;DHT22;8103;51.340;12.326;2023-06-14T10:29:26;31.30;32.00
15997;DHT22;8103;51.340;12.326;2023-06-14T10:32:00;31.60;32.70
15997;DHT22;8103;51.340;12.326;2023-06-14T10:34:28;32.70;31.90
15997;DHT22;8103;51.340;12.326;2023-06-14T10:37:12;34.30;34.00
15997;DHT22;8103;51.340;12.326;2023-06-14T10:39:42;35.40;36.00
15997;DHT22;8103;51.340;12.326;2023-06-14T10:42:14;35.90;35.00
15997;DHT22;8103;51.340;12.326;2023-06-14T10:44:56;35.90;35.50
15997;DHT22;8103;51.340;12.326;2023-06-14T10:47:29;36.40;34.00
15997;DHT22;8103;51.340;12.326;2023-06-14T10:50:09;37.40;36.40
15997;DHT22;8103;51.340;12.326;2023-06-14T10:52:41;38.20;37.90
15997;DHT22;8103;51.340;12.326;2023-06-14T10:55:18;38.90;46.80
15997;DHT22;8103;51.340;12.326;2023-06-14T10:57:52;40.40;23.10
15997;DHT22;8103;51.340;12.326;2023-06-14T11:04:47;42.20;21.90
15997;DHT22;8103;51.340;12.326;2023-06-14T11:10:40;42.80;21.70
15997;DHT22;8103;51.340;12.326;2023-06-14T11:13:09;43.30;21.40
15997;DHT22;8103;51.340;12.326;2023-06-14T11:15:37;43.90;21.20
15997;DHT22;8103;51.340;12.326;2023-06-14T11:18:06;44.30;20.80
15997;DHT22;8103;51.340;12.326;2023-06-14T11:20:36;44.10;20.90
15997;DHT22;8103;51.340;12.326;2023-06-14T11:23:06;44.00;21.50
15997;DHT22;8103;51.340;12.326;2023-06-14T11:25:33;44.30;20.90
15997;DHT22;8103;51.340;12.326;2023-06-14T11:28:02;43.40;21.10
15997;DHT22;8103;51.340;12.326;2023-06-14T11:30:29;43.20;21.50
15997;DHT22;8103;51.340;12.326;2023-06-14T11:32:59;43.50;21.30
15997;DHT22;8103;51.340;12.326;2023-06-14T11:35:26;44.30;21.10
15997;DHT22;8103;51.340;12.326;2023-06-14T11:37:55;45.10;20.60
15997;DHT22;8103;51.340;12.326;2023-06-14T11:40:27;46.20;20.00
15997;DHT22;8103;51.340;12.326;2023-06-14T11:43:01;46.50;19.60
15997;DHT22;8103;51.340;12.326;2023-06-14T11:45:29;46.10;19.80
15997;DHT22;8103;51.340;12.326;2023-06-14T11:48:06;45.90;20.00
15997;DHT22;8103;51.340;12.326;2023-06-14T11:50:38;45.50;20.00
15997;DHT22;8103;51.340;12.326;2023-06-14T11:53:05;44.30;20.60
15997;DHT22;8103;51.340;12.326;2023-06-14T11:55:37;44.20;20.10
15997;DHT22;8103;51.340;12.326;2023-06-14T11:58:10;43.80;20.80
15997;DHT22;8103;51.340;12.326;2023-06-14T12:00:38;44.70;20.60
15997;DHT22;8103;51.340;12.326;2023-06-14T12:03:06;45.70;20.20
15997;DHT22;8103;51.340;12.326;2023-06-14T12:05:34;46.70;19.40
15997;DHT22;8103;51.340;12.326;2023-06-14T12:08:03;47.20;19.00
15997;DHT22;8103;51.340;12.326;2023-06-14T12:10:40;47.70;19.30
15997;DHT22;8103;51.340;12.326;2023-06-14T12:15:37;49.10;19.80
15997;DHT22;8103;51.340;12.326;2023-06-14T12:18:08;48.90;23.20
15997;DHT22;8103;51.340;12.326;2023-06-14T12:20:41;48.70;20.30
15997;DHT22;8103;51.340;12.326;2023-06-14T12:23:08;48.60;20.90
15997;DHT22;8103;51.340;12.326;2023-06-14T12:25:37;46.40;25.10
15997;DHT22;8103;51.340;12.326;2023-06-14T12:28:09;44.10;27.40
15997;DHT22;8103;51.340;12.326;2023-06-14T12:30:37;41.70;27.80
15997;DHT22;8103;51.340;12.326;2023-06-14T12:33:05;39.20;23.90
15997;DHT22;8103;51.340;12.326;2023-06-14T12:35:33;37.20;25.60
15997;DHT22;8103;51.340;12.326;2023-06-14T12:38:00;35.50;27.20
15997;DHT22;8103;51.340;12.326;2023-06-14T12:40:30;34.30;30.00
15997;DHT22;8103;51.340;12.326;2023-06-14T12:43:06;33.10;29.50
15997;DHT22;8103;51.340;12.326;2023-06-14T12:45:33;32.10;30.80
15997;DHT22;8103;51.340;12.326;2023-06-14T12:48:00;31.50;31.60
15997;DHT22;8103;51.340;12.326;2023-06-14T12:50:27;30.90;32.60
15997;DHT22;8103;51.340;12.326;2023-06-14T12:52:54;30.30;34.80
15997;DHT22;8103;51.340;12.326;2023-06-14T12:55:21;29.70;35.90
15997;DHT22;8103;51.340;12.326;2023-06-14T12:57:48;29.30;38.70
15997;DHT22;8103;51.340;12.326;2023-06-14T13:00:16;29.10;40.50
15997;DHT22;8103;51.340;12.326;2023-06-14T13:02:44;28.80;40.90
15997;DHT22;8103;51.340;12.326;2023-06-14T13:05:11;28.30;42.10
15997;DHT22;8103;51.340;12.326;2023-06-14T13:07:38;28.10;39.70
15997;DHT22;8103;51.340;12.326;2023-06-14T13:10:06;28.20;40.20
15997;DHT22;8103;51.340;12.326;2023-06-14T13:12:34;28.30;39.60
15997;DHT22;8103;51.340;12.326;2023-06-14T13:15:01;28.30;39.20
15997;DHT22;8103;51.340;12.326;2023-06-14T13:17:28;28.30;41.00
15997;DHT22;8103;51.340;12.326;2023-06-14T13:19:54;29.90;38.10
15997;DHT22;8103;51.340;12.326;2023-06-14T13:22:21;31.80;34.70
15997;DHT22;8103;51.340;12.326;2023-06-14T13:24:48;32.10;33.70
15997;DHT22;8103;51.340;12.326;2023-06-14T13:27:16;31.60;34.00
15997;DHT22;8103;51.340;12.326;2023-06-14T13:29:43;30.80;34.90
15997;DHT22;8103;51.340;12.326;2023-06-14T13:32:09;29.90;36.10
15997;DHT22;8103;51.340;12.326;2023-06-14T13:34:37;29.10;37.60
15997;DHT22;8103;51.340;12.326;2023-06-14T13:37:04;28.50;38.80
15997;DHT22;8103;51.340;12.326;2023-06-14T13:39:31;28.20;39.70
15997;DHT22;8103;51.340;12.326;2023-06-14T13:41:58;28.10;40.40
15997;DHT22;8103;51.340;12.326;2023-06-14T13:44:25;28.00;40.70
15997;DHT22;8103;51.340;12.326;2023-06-14T13:46:52;27.90;41.10
15997;DHT22;8103;51.340;12.326;2023-06-14T13:53:26;28.00;40.40
15997;DHT22;8103;51.340;12.326;2023-06-14T13:59:59;28.30;40.10
15997;DHT22;8103;51.340;12.326;2023-06-14T14:02:29;28.50;40.10
15997;DHT22;8103;51.340;12.326;2023-06-14T14:04:56;28.50;40.10
15997;DHT22;8103;51.340;12.326;2023-06-14T14:07:24;28.60;40.00
15997;DHT22;8103;51.340;12.326;2023-06-14T14:09:52;28.70;39.80
15997;DHT22;8103;51.340;12.326;2023-06-14T14:12:20;28.70;39.60
15997;DHT22;8103;51.340;12.326;2023-06-14T14:18:53;29.50;41.00
15997;DHT22;8103;51.340;12.326;2023-06-14T14:21:20;30.60;39.30
15997;DHT22;8103;51.340;12.326;2023-06-14T14:23:48;31.00;38.70
15997;DHT22;8103;51.340;12.326;2023-06-14T14:26:16;30.90;39.40
15997;DHT22;8103;51.340;12.326;2023-06-14T14:28:43;30.70;39.50
15997;DHT22;8103;51.340;12.326;2023-06-14T14:31:10;30.40;39.80
15997;DHT22;8103;51.340;12.326;2023-06-14T14:33:37;30.40;37.70
15997;DHT22;8103;51.340;12.326;2023-06-14T14:36:06;32.20;36.30
15997;DHT22;8103;51.340;12.326;2023-06-14T14:38:36;34.30;33.40
15997;DHT22;8103;51.340;12.326;2023-06-14T14:41:04;36.40;30.30
15997;DHT22;8103;51.340;12.326;2023-06-14T14:43:31;37.40;29.40
15997;DHT22;8103;51.340;12.326;2023-06-14T14:45:59;37.90;28.50
15997;DHT22;8103;51.340;12.326;2023-06-14T14:48:26;37.70;30.70
15997;DHT22;8103;51.340;12.326;2023-06-14T14:50:52;36.50;31.30
15997;DHT22;8103;51.340;12.326;2023-06-14T14:53:19;34.70;33.50
15997;DHT22;8103;51.340;12.326;2023-06-14T14:55:46;33.20;36.70
15997;DHT22;8103;51.340;12.326;2023-06-14T15:02:19;30.80;40.20
15997;DHT22;8103;51.340;12.326;2023-06-14T15:04:47;30.80;41.00
15997;DHT22;8103;51.340;12.326;2023-06-14T15:07:14;31.50;36.00
15997;DHT22;8103;51.340;12.326;2023-06-14T15:13:47;30.90;38.70
15997;DHT22;8103;51.340;12.326;2023-06-14T15:16:15;30.10;42.20
15997;DHT22;8103;51.340;12.326;2023-06-14T15:18:43;29.30;40.50
15997;DHT22;8103;51.340;12.326;2023-06-14T15:21:12;28.90;40.90
15997;DHT22;8103;51.340;12.326;2023-06-14T15:23:39;29.10;41.50
15997;DHT22;8103;51.340;12.326;2023-06-14T15:26:06;30.50;40.20
15997;DHT22;8103;51.340;12.326;2023-06-14T15:28:33;32.00;37.70
15997;DHT22;8103;51.340;12.326;2023-06-14T15:31:01;33.50;35.60
15997;DHT22;8103;51.340;12.326;2023-06-14T15:33:28;34.20;34.30
15997;DHT22;8103;51.340;12.326;2023-06-14T15:35:55;34.70;33.80
15997;DHT22;8103;51.340;12.326;2023-06-14T15:38:22;34.70;33.50
15997;DHT22;8103;51.340;12.326;2023-06-14T15:44:55;34.50;34.10
15997;DHT22;8103;51.340;12.326;2023-06-14T15:47:22;34.20;34.90
15997;DHT22;8103;51.340;12.326;2023-06-14T15:49:53;33.10;35.50
15997;DHT22;8103;51.340;12.326;2023-06-14T15:52:31;31.90;37.70
15997;DHT22;8103;51.340;12.326;2023-06-14T15:55:00;30.80;40.30
15997;DHT22;8103;51.340;12.326;2023-06-14T15:57:28;29.90;41.10
15997;DHT22;8103;51.340;12.326;2023-06-14T15:59:56;29.30;43.30
15997;DHT22;8103;51.340;12.326;2023-06-14T16:02:25;28.70;45.70
15997;DHT22;8103;51.340;12.326;2023-06-14T16:04:55;28.10;45.80
15997;DHT22;8103;51.340;12.326;2023-06-14T16:07:23;27.60;47.90
15997;DHT22;8103;51.340;12.326;2023-06-14T16:09:52;27.50;47.70
15997;DHT22;8103;51.340;12.326;2023-06-14T16:12:19;27.20;50.70
15997;DHT22;8103;51.340;12.326;2023-06-14T16:14:49;27.00;52.70
15997;DHT22;8103;51.340;12.326;2023-06-14T16:17:34;26.80;53.30
15997;DHT22;8103;51.340;12.326;2023-06-14T16:20:29;26.50;53.40
15997;DHT22;8103;51.340;12.326;2023-06-14T16:22:57;26.10;53.40
15997;DHT22;8103;51.340;12.326;2023-06-14T16:25:24;25.80;59.50
15997;DHT22;8103;51.340;12.326;2023-06-14T16:27:54;25.50;57.20
15997;DHT22;8103;51.340;12.326;2023-06-14T16:30:22;25.10;57.40
15997;DHT22;8103;51.340;12.326;2023-06-14T16:32:49;24.90;55.50
15997;DHT22;8103;51.340;12.326;2023-06-14T16:35:19;24.70;55.80
15997;DHT22;8103;51.340;12.326;2023-06-14T16:41:55;24.40;56.80
15997;DHT22;8103;51.340;12.326;2023-06-14T16:44:22;24.20;57.20